TimeEDT,TemperatureF,Dew PointF,Humidity,Sea Level PressureIn,VisibilityMPH,Wind Direction,Wind SpeedMPH,Gust SpeedMPH,PrecipitationIn,Events,Conditions,WindDirDegrees,DateUTC
12:40 AM,73.4,73.4,100,30.05,10.0,East,5.8,-,N/A,,Overcast,90,2013-07-14 04:40:00
12:53 AM,73.9,73.0,97,30.04,10.0,East,3.5,-,N/A,,Overcast,100,2013-07-14 04:53:00
1:01 AM,73.4,73.4,100,30.04,10.0,East,4.6,-,N/A,,Overcast,100,2013-07-14 05:01:00
1:53 AM,73.0,73.0,100,30.02,10.0,Calm,Calm,-,N/A,,Mostly Cloudy,0,2013-07-14 05:53:00
2:04 AM,73.4,73.4,100,30.02,10.0,East,3.5,-,N/A,,Mostly Cloudy,100,2013-07-14 06:04:00
2:53 AM,73.0,72.0,96,30.01,10.0,East,5.8,-,N/A,,Mostly Cloudy,80,2013-07-14 06:53:00
3:00 AM,73.4,71.6,94,30.01,10.0,East,5.8,-,N/A,,Partly Cloudy,90,2013-07-14 07:00:00
3:20 AM,73.4,71.6,94,30.01,9.0,East,3.5,-,N/A,,Partly Cloudy,90,2013-07-14 07:20:00
3:46 AM,73.4,71.6,94,30.02,9.0,ESE,4.6,-,N/A,,Mostly Cloudy,110,2013-07-14 07:46:00
3:53 AM,73.0,72.0,96,30.01,10.0,ESE,4.6,-,N/A,,Mostly Cloudy,110,2013-07-14 07:53:00
3:57 AM,73.4,71.6,94,30.01,10.0,East,3.5,-,N/A,,Mostly Cloudy,100,2013-07-14 07:57:00
4:53 AM,72.0,71.1,97,30.01,10.0,ESE,4.6,-,N/A,,Clear,110,2013-07-14 08:53:00
5:53 AM,71.1,70.0,96,30.02,10.0,East,3.5,-,N/A,,Partly Cloudy,90,2013-07-14 09:53:00
6:07 AM,71.6,69.8,94,30.03,10.0,Calm,Calm,-,N/A,,Mostly Cloudy,0,2013-07-14 10:07:00
6:53 AM,72.0,71.1,97,30.05,8.0,East,5.8,-,N/A,,Mostly Cloudy,80,2013-07-14 10:53:00
7:53 AM,73.0,71.1,93,30.06,9.0,East,5.8,-,N/A,,Overcast,90,2013-07-14 11:53:00
8:53 AM,73.9,72.0,93,30.07,10.0,East,6.9,-,N/A,,Mostly Cloudy,90,2013-07-14 12:53:00
9:53 AM,75.9,72.0,87,30.07,10.0,ESE,6.9,-,N/A,,Overcast,110,2013-07-14 13:53:00
10:53 AM,79.0,72.0,79,30.08,10.0,ESE,9.2,-,N/A,,Overcast,120,2013-07-14 14:53:00
11:53 AM,82.0,72.0,71,30.09,10.0,ESE,11.5,-,N/A,,Mostly Cloudy,110,2013-07-14 15:53:00
12:53 PM,84.9,73.0,67,30.10,10.0,ESE,9.2,-,N/A,,Mostly Cloudy,110,2013-07-14 16:53:00
1:53 PM,87.1,73.0,63,30.09,10.0,ESE,8.1,-,N/A,,Mostly Cloudy,120,2013-07-14 17:53:00
2:53 PM,87.1,71.1,59,30.08,10.0,ESE,10.4,-,N/A,,Mostly Cloudy,110,2013-07-14 18:53:00
3:53 PM,89.1,71.1,55,30.06,10.0,ESE,12.7,-,N/A,,Mostly Cloudy,120,2013-07-14 19:53:00
4:53 PM,90.0,71.1,54,30.05,10.0,ESE,9.2,-,N/A,,Partly Cloudy,110,2013-07-14 20:53:00
5:53 PM,87.1,72.0,61,30.05,10.0,ESE,10.4,-,N/A,,Mostly Cloudy,110,2013-07-14 21:53:00
6:53 PM,84.0,73.0,69,30.06,10.0,ESE,10.4,-,N/A,,Clear,110,2013-07-14 22:53:00
7:53 PM,82.9,73.0,72,30.08,10.0,ESE,5.8,-,N/A,,Scattered Clouds,120,2013-07-14 23:53:00
8:53 PM,81.0,73.0,77,30.09,10.0,ESE,3.5,-,N/A,,Mostly Cloudy,110,2013-07-15 00:53:00
9:01 PM,80.6,73.4,79,30.10,10.0,East,4.6,-,N/A,,Scattered Clouds,100,2013-07-15 01:01:00
9:53 PM,79.0,73.9,84,30.11,10.0,East,5.8,-,N/A,,Scattered Clouds,80,2013-07-15 01:53:00
10:53 PM,78.1,73.0,84,30.13,10.0,East,9.2,-,N/A,,Clear,90,2013-07-15 02:53:00
11:53 PM,77.0,73.0,88,30.14,10.0,East,6.9,-,N/A,,Scattered Clouds,90,2013-07-15 03:53:00